sensor_id;sensor_type;location;lat;lon;timestamp;temperature;humidity
20726;DHT22;10524;48.132;8.518;2023-04-12T00:01:14;5.20;99.90
20726;DHT22;10524;48.132;8.518;2023-04-12T00:03:40;5.20;99.90
20726;DHT22;10524;48.132;8.518;2023-04-12T00:06:06;5.30;99.90
20726;DHT22;10524;48.132;8.518;2023-04-12T00:08:32;5.20;99.90
20726;DHT22;10524;48.132;8.518;2023-04-12T00:11:03;5.30;99.90
20726;DHT22;10524;48.132;8.518;2023-04-12T00:13:29;5.30;99.90
20726;DHT22;10524;48.132;8.518;2023-04-12T00:15:56;5.30;99.90
20726;DHT22;10524;48.132;8.518;2023-04-12T00:18:21;5.20;99.90
20726;DHT22;10524;48.132;8.518;2023-04-12T00:20:50;5.30;99.90
20726;DHT22;10524;48.132;8.518;2023-04-12T00:23:16;5.30;99.90
20726;DHT22;10524;48.132;8.518;2023-04-12T00:25:43;5.20;99.90
20726;DHT22;10524;48.132;8.518;2023-04-12T00:28:10;5.20;99.90
20726;DHT22;10524;48.132;8.518;2023-04-12T00:30:37;5.20;99.90
20726;DHT22;10524;48.132;8.518;2023-04-12T00:33:03;5.20;99.90
20726;DHT22;10524;48.132;8.518;2023-04-12T00:35:28;5.30;99.90
20726;DHT22;10524;48.132;8.518;2023-04-12T00:37:54;5.20;99.90
20726;DHT22;10524;48.132;8.518;2023-04-12T00:40:20;5.20;99.90
20726;DHT22;10524;48.132;8.518;2023-04-12T00:42:46;5.20;99.90
20726;DHT22;10524;48.132;8.518;2023-04-12T00:45:13;5.20;99.90
20726;DHT22;10524;48.132;8.518;2023-04-12T00:47:40;5.20;99.90
20726;DHT22;10524;48.132;8.518;2023-04-12T00:50:08;5.30;99.90
20726;DHT22;10524;48.132;8.518;2023-04-12T00:52:34;5.30;99.90
20726;DHT22;10524;48.132;8.518;2023-04-12T00:55:03;5.20;99.90
20726;DHT22;10524;48.132;8.518;2023-04-12T00:57:35;5.20;99.90
20726;DHT22;10524;48.132;8.518;2023-04-12T01:00:05;5.20;99.90
20726;DHT22;10524;48.132;8.518;2023-04-12T01:02:40;5.20;99.90
20726;DHT22;10524;48.132;8.518;2023-04-12T01:05:07;5.20;99.90
20726;DHT22;10524;48.132;8.518;2023-04-12T01:07:47;5.20;99.90
20726;DHT22;10524;48.132;8.518;2023-04-12T01:10:19;5.20;99.90
20726;DHT22;10524;48.132;8.518;2023-04-12T01:13:10;5.20;99.90
20726;DHT22;10524;48.132;8.518;2023-04-12T01:15:43;5.20;99.90
20726;DHT22;10524;48.132;8.518;2023-04-12T01:18:15;5.20;99.90
20726;DHT22;10524;48.132;8.518;2023-04-12T01:20:52;5.20;99.90
20726;DHT22;10524;48.132;8.518;2023-04-12T01:29:07;5.20;99.90
20726;DHT22;10524;48.132;8.518;2023-04-12T01:31:35;5.10;99.90
20726;DHT22;10524;48.132;8.518;2023-04-12T01:34:02;5.10;99.90
20726;DHT22;10524;48.132;8.518;2023-04-12T01:36:29;5.10;99.90
20726;DHT22;10524;48.132;8.518;2023-04-12T01:38:55;5.10;99.90
20726;DHT22;10524;48.132;8.518;2023-04-12T01:41:22;5.10;99.90
20726;DHT22;10524;48.132;8.518;2023-04-12T01:43:48;5.10;99.90
20726;DHT22;10524;48.132;8.518;2023-04-12T01:46:19;5.00;99.90
20726;DHT22;10524;48.132;8.518;2023-04-12T01:48:52;5.00;99.90
20726;DHT22;10524;48.132;8.518;2023-04-12T01:54:22;5.00;99.90
20726;DHT22;10524;48.132;8.518;2023-04-12T01:56:55;5.00;99.90
20726;DHT22;10524;48.132;8.518;2023-04-12T01:59:25;5.00;99.90
20726;DHT22;10524;48.132;8.518;2023-04-12T02:01:51;5.00;99.90
20726;DHT22;10524;48.132;8.518;2023-04-12T02:04:18;5.00;99.90
20726;DHT22;10524;48.132;8.518;2023-04-12T02:06:45;5.00;99.90
20726;DHT22;10524;48.132;8.518;2023-04-12T02:09:12;5.00;99.90
20726;DHT22;10524;48.132;8.518;2023-04-12T02:11:37;5.00;99.90
20726;DHT22;10524;48.132;8.518;2023-04-12T02:14:03;5.00;99.90
20726;DHT22;10524;48.132;8.518;2023-04-12T02:16:29;5.00;99.90
20726;DHT22;10524;48.132;8.518;2023-04-12T02:18:56;5.00;99.90
20726;DHT22;10524;48.132;8.518;2023-04-12T02:21:23;5.00;99.90
20726;DHT22;10524;48.132;8.518;2023-04-12T02:23:49;5.00;99.90
20726;DHT22;10524;48.132;8.518;2023-04-12T02:26:15;5.00;99.90
20726;DHT22;10524;48.132;8.518;2023-04-12T02:28:41;5.00;99.90
20726;DHT22;10524;48.132;8.518;2023-04-12T02:31:07;5.00;99.90
20726;DHT22;10524;48.132;8.518;2023-04-12T02:33:33;5.00;99.90
20726;DHT22;10524;48.132;8.518;2023-04-12T02:35:59;5.00;99.90
20726;DHT22;10524;48.132;8.518;2023-04-12T02:38:27;5.00;99.90
20726;DHT22;10524;48.132;8.518;2023-04-12T02:40:53;5.00;99.90
20726;DHT22;10524;48.132;8.518;2023-04-12T02:43:20;5.00;99.90
20726;DHT22;10524;48.132;8.518;2023-04-12T02:45:46;5.00;99.90
20726;DHT22;10524;48.132;8.518;2023-04-12T02:48:12;5.00;99.90
20726;DHT22;10524;48.132;8.518;2023-04-12T02:50:37;5.10;99.90
20726;DHT22;10524;48.132;8.518;2023-04-12T02:53:03;5.10;99.90
20726;DHT22;10524;48.132;8.518;2023-04-12T02:55:29;5.00;99.90
20726;DHT22;10524;48.132;8.518;2023-04-12T02:57:55;5.10;99.90
20726;DHT22;10524;48.132;8.518;2023-04-12T03:00:22;5.10;99.90
20726;DHT22;10524;48.132;8.518;2023-04-12T03:02:47;5.10;99.90
20726;DHT22;10524;48.132;8.518;2023-04-12T03:05:17;5.00;99.90
20726;DHT22;10524;48.132;8.518;2023-04-12T03:07:43;5.10;99.90
20726;DHT22;10524;48.132;8.518;2023-04-12T03:10:09;5.10;99.90
20726;DHT22;10524;48.132;8.518;2023-04-12T03:12:37;5.10;99.90
20726;DHT22;10524;48.132;8.518;2023-04-12T03:15:03;5.10;99.90
20726;DHT22;10524;48.132;8.518;2023-04-12T03:17:29;5.00;99.90
20726;DHT22;10524;48.132;8.518;2023-04-12T03:19:55;5.10;99.90
20726;DHT22;10524;48.132;8.518;2023-04-12T03:22:22;5.10;99.90
20726;DHT22;10524;48.132;8.518;2023-04-12T03:24:50;5.10;99.90
20726;DHT22;10524;48.132;8.518;2023-04-12T03:27:16;5.10;99.90
20726;DHT22;10524;48.132;8.518;2023-04-12T03:29:41;5.10;99.90
20726;DHT22;10524;48.132;8.518;2023-04-12T03:32:07;5.10;99.90
20726;DHT22;10524;48.132;8.518;2023-04-12T03:34:33;5.10;99.90
20726;DHT22;10524;48.132;8.518;2023-04-12T03:37:01;5.10;99.90
20726;DHT22;10524;48.132;8.518;2023-04-12T03:39:27;5.10;99.90
20726;DHT22;10524;48.132;8.518;2023-04-12T03:41:53;5.10;99.90
20726;DHT22;10524;48.132;8.518;2023-04-12T03:44:18;5.10;99.90
20726;DHT22;10524;48.132;8.518;2023-04-12T03:46:44;5.10;99.90
20726;DHT22;10524;48.132;8.518;2023-04-12T03:49:10;5.10;99.90
20726;DHT22;10524;48.132;8.518;2023-04-12T03:51:36;5.10;99.90
20726;DHT22;10524;48.132;8.518;2023-04-12T03:54:08;5.10;99.90
20726;DHT22;10524;48.132;8.518;2023-04-12T03:56:33;5.10;99.90
20726;DHT22;10524;48.132;8.518;2023-04-12T03:58:59;5.10;99.90
20726;DHT22;10524;48.132;8.518;2023-04-12T04:01:25;5.10;99.90
20726;DHT22;10524;48.132;8.518;2023-04-12T04:03:50;5.10;99.90
20726;DHT22;10524;48.132;8.518;2023-04-12T04:06:16;5.10;99.90
20726;DHT22;10524;48.132;8.518;2023-04-12T04:08:42;5.20;99.90
20726;DHT22;10524;48.132;8.518;2023-04-12T04:11:10;5.10;99.90
20726;DHT22;10524;48.132;8.518;2023-04-12T04:13:36;5.10;99.90
20726;DHT22;10524;48.132;8.518;2023-04-12T04:16:04;5.20;99.90
20726;DHT22;10524;48.132;8.518;2023-04-12T04:18:31;5.20;99.90
20726;DHT22;10524;48.132;8.518;2023-04-12T04:20:57;5.20;99.90
20726;DHT22;10524;48.132;8.518;2023-04-12T04:23:23;5.20;99.90
20726;DHT22;10524;48.132;8.518;2023-04-12T04:25:49;5.20;99.90
20726;DHT22;10524;48.132;8.518;2023-04-12T04:28:15;5.20;99.90
20726;DHT22;10524;48.132;8.518;2023-04-12T04:30:42;5.20;99.90
20726;DHT22;10524;48.132;8.518;2023-04-12T04:33:11;5.20;99.90
20726;DHT22;10524;48.132;8.518;2023-04-12T04:35:40;5.20;99.90
20726;DHT22;10524;48.132;8.518;2023-04-12T04:38:06;5.30;99.90
20726;DHT22;10524;48.132;8.518;2023-04-12T04:40:32;5.30;99.90
20726;DHT22;10524;48.132;8.518;2023-04-12T04:42:58;5.30;99.90
20726;DHT22;10524;48.132;8.518;2023-04-12T04:45:24;5.30;99.90
20726;DHT22;10524;48.132;8.518;2023-04-12T04:47:55;5.30;99.90
20726;DHT22;10524;48.132;8.518;2023-04-12T04:50:24;5.30;99.90
20726;DHT22;10524;48.132;8.518;2023-04-12T04:52:51;5.30;99.90
20726;DHT22;10524;48.132;8.518;2023-04-12T04:55:16;5.30;99.90
20726;DHT22;10524;48.132;8.518;2023-04-12T04:57:43;5.30;99.90
20726;DHT22;10524;48.132;8.518;2023-04-12T05:00:09;5.40;99.90
20726;DHT22;10524;48.132;8.518;2023-04-12T05:02:36;5.30;99.90
20726;DHT22;10524;48.132;8.518;2023-04-12T05:05:05;5.40;99.90
20726;DHT22;10524;48.132;8.518;2023-04-12T05:07:31;5.40;99.90
20726;DHT22;10524;48.132;8.518;2023-04-12T05:09:57;5.40;99.90
20726;DHT22;10524;48.132;8.518;2023-04-12T05:12:23;5.40;99.90
20726;DHT22;10524;48.132;8.518;2023-04-12T05:14:49;5.40;99.90
20726;DHT22;10524;48.132;8.518;2023-04-12T05:17:14;5.50;99.90
20726;DHT22;10524;48.132;8.518;2023-04-12T05:19:40;5.50;99.90
20726;DHT22;10524;48.132;8.518;2023-04-12T05:22:08;5.50;99.90
20726;DHT22;10524;48.132;8.518;2023-04-12T05:24:33;5.50;99.90
20726;DHT22;10524;48.132;8.518;2023-04-12T05:26:59;5.50;99.90
20726;DHT22;10524;48.132;8.518;2023-04-12T05:29:24;5.50;99.90
20726;DHT22;10524;48.132;8.518;2023-04-12T05:31:50;5.50;99.90
20726;DHT22;10524;48.132;8.518;2023-04-12T05:34:16;5.50;99.90
20726;DHT22;10524;48.132;8.518;2023-04-12T05:36:41;5.60;99.90
20726;DHT22;10524;48.132;8.518;2023-04-12T05:39:07;5.60;99.90
20726;DHT22;10524;48.132;8.518;2023-04-12T05:41:32;5.70;99.90
20726;DHT22;10524;48.132;8.518;2023-04-12T05:43:58;5.70;99.90
20726;DHT22;10524;48.132;8.518;2023-04-12T05:46:24;5.70;99.90
20726;DHT22;10524;48.132;8.518;2023-04-12T05:48:49;5.70;99.90
20726;DHT22;10524;48.132;8.518;2023-04-12T05:51:15;5.70;99.90
20726;DHT22;10524;48.132;8.518;2023-04-12T05:53:40;5.80;99.90
20726;DHT22;10524;48.132;8.518;2023-04-12T05:56:06;5.80;99.90
20726;DHT22;10524;48.132;8.518;2023-04-12T05:58:32;5.80;99.90
20726;DHT22;10524;48.132;8.518;2023-04-12T06:00:58;5.80;99.90
20726;DHT22;10524;48.132;8.518;2023-04-12T06:03:24;5.90;99.90
20726;DHT22;10524;48.132;8.518;2023-04-12T06:05:50;5.80;99.90
20726;DHT22;10524;48.132;8.518;2023-04-12T06:08:17;5.90;99.90
20726;DHT22;10524;48.132;8.518;2023-04-12T06:10:43;5.90;99.90
20726;DHT22;10524;48.132;8.518;2023-04-12T06:13:08;5.90;99.90
20726;DHT22;10524;48.132;8.518;2023-04-12T06:15:34;5.90;99.90
20726;DHT22;10524;48.132;8.518;2023-04-12T06:18:00;5.90;99.90
20726;DHT22;10524;48.132;8.518;2023-04-12T06:20:26;5.90;99.90
20726;DHT22;10524;48.132;8.518;2023-04-12T06:22:52;5.90;99.90
20726;DHT22;10524;48.132;8.518;2023-04-12T06:25:17;5.90;99.90
20726;DHT22;10524;48.132;8.518;2023-04-12T06:27:43;5.90;99.90
20726;DHT22;10524;48.132;8.518;2023-04-12T06:30:09;6.00;99.90
20726;DHT22;10524;48.132;8.518;2023-04-12T06:32:35;6.00;99.90
20726;DHT22;10524;48.132;8.518;2023-04-12T06:35:03;6.10;99.90
20726;DHT22;10524;48.132;8.518;2023-04-12T06:37:29;6.10;99.90
20726;DHT22;10524;48.132;8.518;2023-04-12T06:39:55;6.20;99.90
20726;DHT22;10524;48.132;8.518;2023-04-12T06:42:20;6.30;99.90
20726;DHT22;10524;48.132;8.518;2023-04-12T06:44:46;6.40;99.90
20726;DHT22;10524;48.132;8.518;2023-04-12T06:47:12;6.60;99.90
20726;DHT22;10524;48.132;8.518;2023-04-12T06:49:37;6.70;99.90
20726;DHT22;10524;48.132;8.518;2023-04-12T06:52:03;6.70;99.90
20726;DHT22;10524;48.132;8.518;2023-04-12T06:54:29;6.70;99.90
20726;DHT22;10524;48.132;8.518;2023-04-12T06:56:54;6.70;99.90
20726;DHT22;10524;48.132;8.518;2023-04-12T06:59:22;6.90;99.90
20726;DHT22;10524;48.132;8.518;2023-04-12T07:01:47;6.90;99.90
20726;DHT22;10524;48.132;8.518;2023-04-12T07:04:13;7.00;99.90
20726;DHT22;10524;48.132;8.518;2023-04-12T07:06:39;7.20;99.90
20726;DHT22;10524;48.132;8.518;2023-04-12T07:09:04;7.10;99.90
20726;DHT22;10524;48.132;8.518;2023-04-12T07:11:30;7.10;99.90
20726;DHT22;10524;48.132;8.518;2023-04-12T07:13:56;7.10;99.90
20726;DHT22;10524;48.132;8.518;2023-04-12T07:16:23;7.10;99.90
20726;DHT22;10524;48.132;8.518;2023-04-12T07:18:49;7.10;99.90
20726;DHT22;10524;48.132;8.518;2023-04-12T07:21:15;7.30;99.90
20726;DHT22;10524;48.132;8.518;2023-04-12T07:23:42;7.30;99.90
20726;DHT22;10524;48.132;8.518;2023-04-12T07:26:08;7.30;99.90
20726;DHT22;10524;48.132;8.518;2023-04-12T07:28:34;7.40;99.90
20726;DHT22;10524;48.132;8.518;2023-04-12T07:31:06;7.60;99.90
20726;DHT22;10524;48.132;8.518;2023-04-12T07:33:32;7.70;99.90
20726;DHT22;10524;48.132;8.518;2023-04-12T07:36:00;7.90;99.90
20726;DHT22;10524;48.132;8.518;2023-04-12T07:38:25;8.10;99.90
20726;DHT22;10524;48.132;8.518;2023-04-12T07:40:53;8.10;99.90
20726;DHT22;10524;48.132;8.518;2023-04-12T07:43:19;7.90;99.90
20726;DHT22;10524;48.132;8.518;2023-04-12T07:45:45;8.00;99.90
20726;DHT22;10524;48.132;8.518;2023-04-12T07:48:11;8.20;99.90
20726;DHT22;10524;48.132;8.518;2023-04-12T07:50:37;8.60;99.90
20726;DHT22;10524;48.132;8.518;2023-04-12T07:53:23;9.10;99.90
20726;DHT22;10524;48.132;8.518;2023-04-12T07:55:49;9.30;99.90
20726;DHT22;10524;48.132;8.518;2023-04-12T07:58:16;9.30;99.90
20726;DHT22;10524;48.132;8.518;2023-04-12T08:00:42;9.40;99.90
20726;DHT22;10524;48.132;8.518;2023-04-12T08:03:09;9.30;99.90
20726;DHT22;10524;48.132;8.518;2023-04-12T08:05:35;9.50;99.90
20726;DHT22;10524;48.132;8.518;2023-04-12T08:08:02;9.60;99.90
20726;DHT22;10524;48.132;8.518;2023-04-12T08:10:28;9.90;99.90
20726;DHT22;10524;48.132;8.518;2023-04-12T08:12:54;10.10;99.90
20726;DHT22;10524;48.132;8.518;2023-04-12T08:15:20;10.40;99.90
20726;DHT22;10524;48.132;8.518;2023-04-12T08:17:46;10.20;99.90
20726;DHT22;10524;48.132;8.518;2023-04-12T08:20:12;10.00;99.90
20726;DHT22;10524;48.132;8.518;2023-04-12T08:22:43;10.10;99.90
20726;DHT22;10524;48.132;8.518;2023-04-12T08:25:09;10.20;99.90
20726;DHT22;10524;48.132;8.518;2023-04-12T08:27:35;10.30;99.90
20726;DHT22;10524;48.132;8.518;2023-04-12T08:30:01;10.50;99.90
20726;DHT22;10524;48.132;8.518;2023-04-12T08:32:28;11.10;99.90
20726;DHT22;10524;48.132;8.518;2023-04-12T08:34:53;11.20;99.90
20726;DHT22;10524;48.132;8.518;2023-04-12T08:37:20;10.90;99.90
20726;DHT22;10524;48.132;8.518;2023-04-12T08:39:45;10.50;99.90
20726;DHT22;10524;48.132;8.518;2023-04-12T08:42:13;10.10;99.90
20726;DHT22;10524;48.132;8.518;2023-04-12T08:44:40;10.10;99.90
20726;DHT22;10524;48.132;8.518;2023-04-12T08:47:07;10.70;99.90
20726;DHT22;10524;48.132;8.518;2023-04-12T08:49:33;11.20;99.90
20726;DHT22;10524;48.132;8.518;2023-04-12T08:52:02;11.80;99.90
20726;DHT22;10524;48.132;8.518;2023-04-12T08:54:28;12.00;99.90
20726;DHT22;10524;48.132;8.518;2023-04-12T08:56:55;11.90;99.90
20726;DHT22;10524;48.132;8.518;2023-04-12T08:59:24;11.60;99.90
20726;DHT22;10524;48.132;8.518;2023-04-12T09:01:52;11.20;99.90
20726;DHT22;10524;48.132;8.518;2023-04-12T09:04:18;10.70;99.90
20726;DHT22;10524;48.132;8.518;2023-04-12T09:06:44;10.50;99.90
20726;DHT22;10524;48.132;8.518;2023-04-12T09:09:10;10.50;99.90
20726;DHT22;10524;48.132;8.518;2023-04-12T09:11:35;10.60;99.90
20726;DHT22;10524;48.132;8.518;2023-04-12T09:14:01;10.80;99.90
20726;DHT22;10524;48.132;8.518;2023-04-12T09:16:40;10.80;99.90
20726;DHT22;10524;48.132;8.518;2023-04-12T09:19:07;11.00;99.90
20726;DHT22;10524;48.132;8.518;2023-04-12T09:21:33;10.60;99.90
20726;DHT22;10524;48.132;8.518;2023-04-12T09:24:02;10.20;99.90
20726;DHT22;10524;48.132;8.518;2023-04-12T09:26:28;10.00;99.90
20726;DHT22;10524;48.132;8.518;2023-04-12T09:28:56;9.90;99.90
20726;DHT22;10524;48.132;8.518;2023-04-12T09:31:21;9.80;99.90
20726;DHT22;10524;48.132;8.518;2023-04-12T09:33:47;9.60;99.90
20726;DHT22;10524;48.132;8.518;2023-04-12T09:36:12;9.60;99.90
20726;DHT22;10524;48.132;8.518;2023-04-12T09:38:39;9.90;99.90
20726;DHT22;10524;48.132;8.518;2023-04-12T09:41:20;10.00;99.90
20726;DHT22;10524;48.132;8.518;2023-04-12T09:43:51;10.30;99.90
20726;DHT22;10524;48.132;8.518;2023-04-12T09:46:17;10.60;99.90
20726;DHT22;10524;48.132;8.518;2023-04-12T09:48:53;11.00;99.90
20726;DHT22;10524;48.132;8.518;2023-04-12T09:51:31;10.90;99.90
20726;DHT22;10524;48.132;8.518;2023-04-12T09:54:02;10.80;99.90
20726;DHT22;10524;48.132;8.518;2023-04-12T09:56:30;10.30;99.90
20726;DHT22;10524;48.132;8.518;2023-04-12T09:59:00;10.10;99.90
20726;DHT22;10524;48.132;8.518;2023-04-12T10:01:28;9.90;99.90
20726;DHT22;10524;48.132;8.518;2023-04-12T10:03:54;9.60;99.90
20726;DHT22;10524;48.132;8.518;2023-04-12T10:06:20;9.60;99.90
20726;DHT22;10524;48.132;8.518;2023-04-12T10:08:48;9.40;99.90
20726;DHT22;10524;48.132;8.518;2023-04-12T10:11:14;9.30;99.90
20726;DHT22;10524;48.132;8.518;2023-04-12T10:13:41;9.20;99.90
20726;DHT22;10524;48.132;8.518;2023-04-12T10:16:08;9.20;99.90
20726;DHT22;10524;48.132;8.518;2023-04-12T10:18:34;9.40;99.90
20726;DHT22;10524;48.132;8.518;2023-04-12T10:21:02;9.70;99.90
20726;DHT22;10524;48.132;8.518;2023-04-12T10:23:30;9.90;99.90
20726;DHT22;10524;48.132;8.518;2023-04-12T10:25:56;10.20;99.90
20726;DHT22;10524;48.132;8.518;2023-04-12T10:28:23;10.10;99.90
20726;DHT22;10524;48.132;8.518;2023-04-12T10:30:48;9.80;99.90
20726;DHT22;10524;48.132;8.518;2023-04-12T10:33:18;9.70;99.90
20726;DHT22;10524;48.132;8.518;2023-04-12T10:36:00;9.60;99.90
20726;DHT22;10524;48.132;8.518;2023-04-12T10:39:07;9.40;99.90
20726;DHT22;10524;48.132;8.518;2023-04-12T10:41:29;9.60;99.90
20726;DHT22;10524;48.132;8.518;2023-04-12T10:44:24;9.50;99.90
20726;DHT22;10524;48.132;8.518;2023-04-12T10:46:52;9.80;99.90
20726;DHT22;10524;48.132;8.518;2023-04-12T10:49:19;10.00;99.90
20726;DHT22;10524;48.132;8.518;2023-04-12T10:56:55;10.30;99.90
20726;DHT22;10524;48.132;8.518;2023-04-12T10:59:22;10.60;99.90
20726;DHT22;10524;48.132;8.518;2023-04-12T11:04:31;10.60;99.90
20726;DHT22;10524;48.132;8.518;2023-04-12T11:06:58;10.90;99.90
20726;DHT22;10524;48.132;8.518;2023-04-12T11:09:26;11.10;99.90
20726;DHT22;10524;48.132;8.518;2023-04-12T11:14:35;10.90;99.90
20726;DHT22;10524;48.132;8.518;2023-04-12T11:19:39;10.40;99.90
20726;DHT22;10524;48.132;8.518;2023-04-12T11:22:07;10.30;99.90
20726;DHT22;10524;48.132;8.518;2023-04-12T11:24:39;10.20;99.90
20726;DHT22;10524;48.132;8.518;2023-04-12T11:27:07;10.20;99.90
20726;DHT22;10524;48.132;8.518;2023-04-12T11:29:33;10.00;99.90
20726;DHT22;10524;48.132;8.518;2023-04-12T11:32:02;10.10;99.90
20726;DHT22;10524;48.132;8.518;2023-04-12T11:34:32;10.30;99.90
20726;DHT22;10524;48.132;8.518;2023-04-12T11:36:58;10.50;99.90
20726;DHT22;10524;48.132;8.518;2023-04-12T11:39:26;10.70;99.90
20726;DHT22;10524;48.132;8.518;2023-04-12T11:41:53;11.00;99.90
20726;DHT22;10524;48.132;8.518;2023-04-12T11:44:19;11.00;99.90
20726;DHT22;10524;48.132;8.518;2023-04-12T11:46:47;11.00;99.90
20726;DHT22;10524;48.132;8.518;2023-04-12T11:49:17;11.10;99.90
20726;DHT22;10524;48.132;8.518;2023-04-12T11:51:44;11.20;99.90
20726;DHT22;10524;48.132;8.518;2023-04-12T11:54:11;11.10;99.90
20726;DHT22;10524;48.132;8.518;2023-04-12T11:56:37;11.40;99.90
20726;DHT22;10524;48.132;8.518;2023-04-12T11:59:03;11.60;99.90
20726;DHT22;10524;48.132;8.518;2023-04-12T12:01:29;11.20;99.90
20726;DHT22;10524;48.132;8.518;2023-04-12T12:03:59;11.20;99.90
20726;DHT22;10524;48.132;8.518;2023-04-12T12:06:26;11.80;99.90
20726;DHT22;10524;48.132;8.518;2023-04-12T12:08:52;11.90;99.90
20726;DHT22;10524;48.132;8.518;2023-04-12T12:11:22;12.20;99.90
20726;DHT22;10524;48.132;8.518;2023-04-12T12:13:55;12.60;99.90
20726;DHT22;10524;48.132;8.518;2023-04-12T12:16:25;12.90;99.90
20726;DHT22;10524;48.132;8.518;2023-04-12T12:18:52;13.70;99.90
20726;DHT22;10524;48.132;8.518;2023-04-12T12:21:17;13.70;99.90
20726;DHT22;10524;48.132;8.518;2023-04-12T12:23:44;14.60;99.90
20726;DHT22;10524;48.132;8.518;2023-04-12T12:26:22;14.50;99.90
20726;DHT22;10524;48.132;8.518;2023-04-12T12:28:56;13.80;99.90
20726;DHT22;10524;48.132;8.518;2023-04-12T12:31:23;13.80;99.90
20726;DHT22;10524;48.132;8.518;2023-04-12T12:33:54;13.90;99.90
20726;DHT22;10524;48.132;8.518;2023-04-12T12:36:34;13.30;99.90
20726;DHT22;10524;48.132;8.518;2023-04-12T12:39:06;13.40;99.90
20726;DHT22;10524;48.132;8.518;2023-04-12T12:41:33;13.10;99.90
20726;DHT22;10524;48.132;8.518;2023-04-12T12:43:59;12.80;99.90
20726;DHT22;10524;48.132;8.518;2023-04-12T12:46:25;12.90;99.90
20726;DHT22;10524;48.132;8.518;2023-04-12T12:48:51;13.10;99.90
20726;DHT22;10524;48.132;8.518;2023-04-12T12:51:16;12.70;99.90
20726;DHT22;10524;48.132;8.518;2023-04-12T12:53:44;12.80;99.90
20726;DHT22;10524;48.132;8.518;2023-04-12T12:56:13;13.00;99.90
20726;DHT22;10524;48.132;8.518;2023-04-12T12:58:40;13.00;99.90
20726;DHT22;10524;48.132;8.518;2023-04-12T13:01:06;13.10;99.90
20726;DHT22;10524;48.132;8.518;2023-04-12T13:03:32;13.30;99.90
20726;DHT22;10524;48.132;8.518;2023-04-12T13:05:59;13.30;99.90
20726;DHT22;10524;48.132;8.518;2023-04-12T13:08:25;13.60;99.90
20726;DHT22;10524;48.132;8.518;2023-04-12T13:10:51;13.50;99.90
20726;DHT22;10524;48.132;8.518;2023-04-12T13:13:17;13.40;99.90
20726;DHT22;10524;48.132;8.518;2023-04-12T13:15:43;13.40;99.90
20726;DHT22;10524;48.132;8.518;2023-04-12T13:18:11;13.50;99.90
20726;DHT22;10524;48.132;8.518;2023-04-12T13:20:40;13.60;99.90
20726;DHT22;10524;48.132;8.518;2023-04-12T13:23:06;13.60;99.90
20726;DHT22;10524;48.132;8.518;2023-04-12T13:25:31;13.40;99.90
20726;DHT22;10524;48.132;8.518;2023-04-12T13:27:57;13.40;99.90
20726;DHT22;10524;48.132;8.518;2023-04-12T13:30:23;13.80;99.90
20726;DHT22;10524;48.132;8.518;2023-04-12T13:32:48;13.80;99.90
20726;DHT22;10524;48.132;8.518;2023-04-12T13:35:14;13.50;99.90
20726;DHT22;10524;48.132;8.518;2023-04-12T13:37:40;13.50;99.90
20726;DHT22;10524;48.132;8.518;2023-04-12T13:40:06;13.30;99.90
20726;DHT22;10524;48.132;8.518;2023-04-12T13:42:32;13.10;99.90
20726;DHT22;10524;48.132;8.518;2023-04-12T13:44:58;12.70;99.90
20726;DHT22;10524;48.132;8.518;2023-04-12T13:47:25;12.80;99.90
20726;DHT22;10524;48.132;8.518;2023-04-12T13:49:51;13.00;99.90
20726;DHT22;10524;48.132;8.518;2023-04-12T13:52:17;13.00;99.90
20726;DHT22;10524;48.132;8.518;2023-04-12T13:54:42;13.10;99.90
20726;DHT22;10524;48.132;8.518;2023-04-12T13:57:08;13.50;99.90
20726;DHT22;10524;48.132;8.518;2023-04-12T13:59:34;13.80;99.90
20726;DHT22;10524;48.132;8.518;2023-04-12T14:02:00;14.20;99.90
20726;DHT22;10524;48.132;8.518;2023-04-12T14:04:27;14.50;99.90
20726;DHT22;10524;48.132;8.518;2023-04-12T14:06:53;14.40;99.90
20726;DHT22;10524;48.132;8.518;2023-04-12T14:09:26;13.60;99.90
20726;DHT22;10524;48.132;8.518;2023-04-12T14:11:52;13.30;99.90
20726;DHT22;10524;48.132;8.518;2023-04-12T14:14:20;13.20;99.90
20726;DHT22;10524;48.132;8.518;2023-04-12T14:16:48;13.20;99.90
20726;DHT22;10524;48.132;8.518;2023-04-12T14:19:14;12.80;99.90
20726;DHT22;10524;48.132;8.518;2023-04-12T14:21:40;12.80;99.90
20726;DHT22;10524;48.132;8.518;2023-04-12T14:24:06;12.50;99.90
20726;DHT22;10524;48.132;8.518;2023-04-12T14:26:32;12.50;99.90
20726;DHT22;10524;48.132;8.518;2023-04-12T14:28:57;12.20;99.90
20726;DHT22;10524;48.132;8.518;2023-04-12T14:31:23;11.90;99.90
20726;DHT22;10524;48.132;8.518;2023-04-12T14:33:50;11.60;99.90
20726;DHT22;10524;48.132;8.518;2023-04-12T14:36:15;11.50;99.90
20726;DHT22;10524;48.132;8.518;2023-04-12T14:38:41;11.30;99.90
20726;DHT22;10524;48.132;8.518;2023-04-12T14:41:07;11.10;99.90
20726;DHT22;10524;48.132;8.518;2023-04-12T14:43:36;11.00;99.90
20726;DHT22;10524;48.132;8.518;2023-04-12T14:46:02;10.80;99.90
20726;DHT22;10524;48.132;8.518;2023-04-12T14:48:28;10.90;99.90
20726;DHT22;10524;48.132;8.518;2023-04-12T14:50:53;11.20;99.90
20726;DHT22;10524;48.132;8.518;2023-04-12T14:53:20;11.60;99.90
20726;DHT22;10524;48.132;8.518;2023-04-12T14:55:46;11.50;99.90
20726;DHT22;10524;48.132;8.518;2023-04-12T14:58:12;11.60;99.90
20726;DHT22;10524;48.132;8.518;2023-04-12T15:00:38;11.90;99.90
20726;DHT22;10524;48.132;8.518;2023-04-12T15:03:04;12.70;99.90
20726;DHT22;10524;48.132;8.518;2023-04-12T15:05:32;13.50;99.90
20726;DHT22;10524;48.132;8.518;2023-04-12T15:07:58;13.30;99.90
20726;DHT22;10524;48.132;8.518;2023-04-12T15:10:23;13.50;99.90
20726;DHT22;10524;48.132;8.518;2023-04-12T15:12:49;13.80;99.90
20726;DHT22;10524;48.132;8.518;2023-04-12T15:15:15;13.60;99.90
20726;DHT22;10524;48.132;8.518;2023-04-12T15:17:41;13.00;99.90
20726;DHT22;10524;48.132;8.518;2023-04-12T15:20:07;12.90;99.90
20726;DHT22;10524;48.132;8.518;2023-04-12T15:22:39;13.30;99.90
20726;DHT22;10524;48.132;8.518;2023-04-12T15:25:06;13.60;99.90
20726;DHT22;10524;48.132;8.518;2023-04-12T15:27:32;13.40;99.90
20726;DHT22;10524;48.132;8.518;2023-04-12T15:29:58;13.20;99.90
20726;DHT22;10524;48.132;8.518;2023-04-12T15:32:25;13.10;99.90
20726;DHT22;10524;48.132;8.518;2023-04-12T15:34:51;12.40;99.90
20726;DHT22;10524;48.132;8.518;2023-04-12T15:37:17;11.80;99.90
20726;DHT22;10524;48.132;8.518;2023-04-12T15:39:44;11.40;99.90
20726;DHT22;10524;48.132;8.518;2023-04-12T15:42:10;11.00;99.90
20726;DHT22;10524;48.132;8.518;2023-04-12T15:44:35;10.80;99.90
20726;DHT22;10524;48.132;8.518;2023-04-12T15:47:01;10.70;99.90
20726;DHT22;10524;48.132;8.518;2023-04-12T15:49:27;10.30;99.90
20726;DHT22;10524;48.132;8.518;2023-04-12T15:51:53;9.70;99.90
20726;DHT22;10524;48.132;8.518;2023-04-12T15:54:22;9.40;99.90
20726;DHT22;10524;48.132;8.518;2023-04-12T15:56:47;8.90;99.90
20726;DHT22;10524;48.132;8.518;2023-04-12T15:59:13;8.70;99.90
20726;DHT22;10524;48.132;8.518;2023-04-12T16:01:39;8.70;99.90